sensor_id;sensor_type;location;lat;lon;timestamp;temperature;humidity
4874;DHT22;2451;49.970;9.068;2023-05-29T00:01:51;15.10;99.90
4874;DHT22;2451;49.970;9.068;2023-05-29T00:04:17;15.10;99.90
4874;DHT22;2451;49.970;9.068;2023-05-29T00:06:43;15.10;99.90
4874;DHT22;2451;49.970;9.068;2023-05-29T00:09:09;15.00;99.90
4874;DHT22;2451;49.970;9.068;2023-05-29T00:11:34;15.00;99.90
4874;DHT22;2451;49.970;9.068;2023-05-29T00:14:00;15.00;99.90
4874;DHT22;2451;49.970;9.068;2023-05-29T00:16:25;15.00;99.90
4874;DHT22;2451;49.970;9.068;2023-05-29T00:18:52;15.00;99.90
4874;DHT22;2451;49.970;9.068;2023-05-29T00:21:17;14.90;99.90
4874;DHT22;2451;49.970;9.068;2023-05-29T00:23:43;14.90;99.90
4874;DHT22;2451;49.970;9.068;2023-05-29T00:26:09;14.80;99.90
4874;DHT22;2451;49.970;9.068;2023-05-29T00:28:35;14.70;99.90
4874;DHT22;2451;49.970;9.068;2023-05-29T00:31:02;14.50;99.90
4874;DHT22;2451;49.970;9.068;2023-05-29T00:33:27;14.50;99.90
4874;DHT22;2451;49.970;9.068;2023-05-29T00:35:53;14.50;99.90
4874;DHT22;2451;49.970;9.068;2023-05-29T00:38:18;14.50;99.90
4874;DHT22;2451;49.970;9.068;2023-05-29T00:40:44;14.40;99.90
4874;DHT22;2451;49.970;9.068;2023-05-29T00:43:09;14.30;99.90
4874;DHT22;2451;49.970;9.068;2023-05-29T00:45:35;14.30;99.90
4874;DHT22;2451;49.970;9.068;2023-05-29T00:48:05;14.20;99.90
4874;DHT22;2451;49.970;9.068;2023-05-29T00:50:32;14.20;99.90
4874;DHT22;2451;49.970;9.068;2023-05-29T00:52:59;14.20;99.90
4874;DHT22;2451;49.970;9.068;2023-05-29T00:55:27;14.10;99.90
4874;DHT22;2451;49.970;9.068;2023-05-29T00:57:53;14.00;99.90
4874;DHT22;2451;49.970;9.068;2023-05-29T01:00:19;14.00;99.90
4874;DHT22;2451;49.970;9.068;2023-05-29T01:02:45;14.00;99.90
4874;DHT22;2451;49.970;9.068;2023-05-29T01:05:12;13.90;99.90
4874;DHT22;2451;49.970;9.068;2023-05-29T01:07:38;13.90;99.90
4874;DHT22;2451;49.970;9.068;2023-05-29T01:10:07;13.80;99.90
4874;DHT22;2451;49.970;9.068;2023-05-29T01:12:51;13.80;99.90
4874;DHT22;2451;49.970;9.068;2023-05-29T01:15:46;13.80;99.90
4874;DHT22;2451;49.970;9.068;2023-05-29T01:23:35;13.80;99.90
4874;DHT22;2451;49.970;9.068;2023-05-29T01:29:07;13.80;99.90
4874;DHT22;2451;49.970;9.068;2023-05-29T01:31:34;13.70;99.90
4874;DHT22;2451;49.970;9.068;2023-05-29T01:34:01;13.60;99.90
4874;DHT22;2451;49.970;9.068;2023-05-29T01:36:27;13.60;99.90
4874;DHT22;2451;49.970;9.068;2023-05-29T01:38:54;13.60;99.90
4874;DHT22;2451;49.970;9.068;2023-05-29T01:41:21;13.60;99.90
4874;DHT22;2451;49.970;9.068;2023-05-29T01:43:48;13.50;99.90
4874;DHT22;2451;49.970;9.068;2023-05-29T01:46:14;13.50;99.90
4874;DHT22;2451;49.970;9.068;2023-05-29T01:48:44;13.50;99.90
4874;DHT22;2451;49.970;9.068;2023-05-29T01:51:11;13.50;99.90
4874;DHT22;2451;49.970;9.068;2023-05-29T01:53:40;13.30;99.90
4874;DHT22;2451;49.970;9.068;2023-05-29T01:56:07;13.30;99.90
4874;DHT22;2451;49.970;9.068;2023-05-29T01:58:34;13.20;99.90
4874;DHT22;2451;49.970;9.068;2023-05-29T02:01:01;13.20;99.90
4874;DHT22;2451;49.970;9.068;2023-05-29T02:03:29;13.20;99.90
4874;DHT22;2451;49.970;9.068;2023-05-29T02:05:56;13.20;99.90
4874;DHT22;2451;49.970;9.068;2023-05-29T02:08:22;13.20;99.90
4874;DHT22;2451;49.970;9.068;2023-05-29T02:10:47;13.20;99.90
4874;DHT22;2451;49.970;9.068;2023-05-29T02:13:13;13.20;99.90
4874;DHT22;2451;49.970;9.068;2023-05-29T02:15:38;13.10;99.90
4874;DHT22;2451;49.970;9.068;2023-05-29T02:18:04;13.10;99.90
4874;DHT22;2451;49.970;9.068;2023-05-29T02:20:29;13.00;99.90
4874;DHT22;2451;49.970;9.068;2023-05-29T02:22:55;13.00;99.90
4874;DHT22;2451;49.970;9.068;2023-05-29T02:25:20;12.90;99.90
4874;DHT22;2451;49.970;9.068;2023-05-29T02:27:46;12.90;99.90
4874;DHT22;2451;49.970;9.068;2023-05-29T02:30:12;12.80;99.90
4874;DHT22;2451;49.970;9.068;2023-05-29T02:32:37;12.80;99.90
4874;DHT22;2451;49.970;9.068;2023-05-29T02:35:03;12.90;99.90
4874;DHT22;2451;49.970;9.068;2023-05-29T02:37:29;12.80;99.90
4874;DHT22;2451;49.970;9.068;2023-05-29T02:39:54;12.80;99.90
4874;DHT22;2451;49.970;9.068;2023-05-29T02:42:20;12.80;99.90
4874;DHT22;2451;49.970;9.068;2023-05-29T02:44:45;12.90;99.90
4874;DHT22;2451;49.970;9.068;2023-05-29T02:47:11;12.80;99.90
4874;DHT22;2451;49.970;9.068;2023-05-29T02:49:36;12.80;99.90
4874;DHT22;2451;49.970;9.068;2023-05-29T02:52:02;12.70;99.90
4874;DHT22;2451;49.970;9.068;2023-05-29T02:54:27;12.70;99.90
4874;DHT22;2451;49.970;9.068;2023-05-29T02:56:53;12.60;99.90
4874;DHT22;2451;49.970;9.068;2023-05-29T02:59:19;12.50;99.90
4874;DHT22;2451;49.970;9.068;2023-05-29T03:01:45;12.40;99.90
4874;DHT22;2451;49.970;9.068;2023-05-29T03:04:12;12.40;99.90
4874;DHT22;2451;49.970;9.068;2023-05-29T03:06:38;12.40;99.90
4874;DHT22;2451;49.970;9.068;2023-05-29T03:09:03;12.40;99.90
4874;DHT22;2451;49.970;9.068;2023-05-29T03:11:31;12.40;99.90
4874;DHT22;2451;49.970;9.068;2023-05-29T03:13:56;12.40;99.90
4874;DHT22;2451;49.970;9.068;2023-05-29T03:16:22;12.40;99.90
4874;DHT22;2451;49.970;9.068;2023-05-29T03:18:47;12.30;99.90
4874;DHT22;2451;49.970;9.068;2023-05-29T03:21:13;12.30;99.90
4874;DHT22;2451;49.970;9.068;2023-05-29T03:23:38;12.20;99.90
4874;DHT22;2451;49.970;9.068;2023-05-29T03:26:04;12.20;99.90
4874;DHT22;2451;49.970;9.068;2023-05-29T03:28:31;12.10;99.90
4874;DHT22;2451;49.970;9.068;2023-05-29T03:30:56;12.10;99.90
4874;DHT22;2451;49.970;9.068;2023-05-29T03:33:22;12.10;99.90
4874;DHT22;2451;49.970;9.068;2023-05-29T03:35:47;12.10;99.90
4874;DHT22;2451;49.970;9.068;2023-05-29T03:38:13;12.10;99.90
4874;DHT22;2451;49.970;9.068;2023-05-29T03:40:38;12.10;99.90
4874;DHT22;2451;49.970;9.068;2023-05-29T03:43:04;12.10;99.90
4874;DHT22;2451;49.970;9.068;2023-05-29T03:45:30;12.10;99.90
4874;DHT22;2451;49.970;9.068;2023-05-29T03:47:55;12.10;99.90
4874;DHT22;2451;49.970;9.068;2023-05-29T03:50:21;12.10;99.90
4874;DHT22;2451;49.970;9.068;2023-05-29T03:52:46;12.20;99.90
4874;DHT22;2451;49.970;9.068;2023-05-29T03:55:12;12.20;99.90
4874;DHT22;2451;49.970;9.068;2023-05-29T03:57:39;12.20;99.90
4874;DHT22;2451;49.970;9.068;2023-05-29T04:00:08;12.20;99.90
4874;DHT22;2451;49.970;9.068;2023-05-29T04:02:38;12.20;99.90
4874;DHT22;2451;49.970;9.068;2023-05-29T04:05:07;12.30;99.90
4874;DHT22;2451;49.970;9.068;2023-05-29T04:07:35;12.30;99.90
4874;DHT22;2451;49.970;9.068;2023-05-29T04:10:05;12.30;99.90
4874;DHT22;2451;49.970;9.068;2023-05-29T04:12:31;12.40;99.90
4874;DHT22;2451;49.970;9.068;2023-05-29T04:14:57;12.50;99.90
4874;DHT22;2451;49.970;9.068;2023-05-29T04:17:22;12.50;99.90
4874;DHT22;2451;49.970;9.068;2023-05-29T04:19:48;12.60;99.90
4874;DHT22;2451;49.970;9.068;2023-05-29T04:22:13;12.70;99.90
4874;DHT22;2451;49.970;9.068;2023-05-29T04:24:39;12.70;99.90
4874;DHT22;2451;49.970;9.068;2023-05-29T04:27:05;12.80;99.90
4874;DHT22;2451;49.970;9.068;2023-05-29T04:29:31;12.90;99.90
4874;DHT22;2451;49.970;9.068;2023-05-29T04:31:57;13.00;99.90
4874;DHT22;2451;49.970;9.068;2023-05-29T04:34:23;13.10;99.90
4874;DHT22;2451;49.970;9.068;2023-05-29T04:36:48;13.10;99.90
4874;DHT22;2451;49.970;9.068;2023-05-29T04:39:14;13.20;99.90
4874;DHT22;2451;49.970;9.068;2023-05-29T04:41:40;13.30;99.90
4874;DHT22;2451;49.970;9.068;2023-05-29T04:44:06;13.40;99.90
4874;DHT22;2451;49.970;9.068;2023-05-29T04:46:33;13.40;99.90
4874;DHT22;2451;49.970;9.068;2023-05-29T04:49:00;13.50;99.90
4874;DHT22;2451;49.970;9.068;2023-05-29T04:51:28;13.60;99.90
4874;DHT22;2451;49.970;9.068;2023-05-29T04:53:53;13.60;99.90
4874;DHT22;2451;49.970;9.068;2023-05-29T04:56:19;13.70;99.90
4874;DHT22;2451;49.970;9.068;2023-05-29T04:58:45;13.70;99.90
4874;DHT22;2451;49.970;9.068;2023-05-29T05:01:11;13.80;99.90
4874;DHT22;2451;49.970;9.068;2023-05-29T05:03:40;13.90;99.90
4874;DHT22;2451;49.970;9.068;2023-05-29T05:06:05;14.00;99.90
4874;DHT22;2451;49.970;9.068;2023-05-29T05:08:33;14.10;99.90
4874;DHT22;2451;49.970;9.068;2023-05-29T05:11:02;14.20;99.90
4874;DHT22;2451;49.970;9.068;2023-05-29T05:13:28;14.40;99.90
4874;DHT22;2451;49.970;9.068;2023-05-29T05:15:53;14.40;99.90
4874;DHT22;2451;49.970;9.068;2023-05-29T05:18:19;14.40;99.90
4874;DHT22;2451;49.970;9.068;2023-05-29T05:20:45;14.60;99.90
4874;DHT22;2451;49.970;9.068;2023-05-29T05:23:11;14.50;99.90
4874;DHT22;2451;49.970;9.068;2023-05-29T05:25:37;14.60;99.90
4874;DHT22;2451;49.970;9.068;2023-05-29T05:28:04;14.60;99.90
4874;DHT22;2451;49.970;9.068;2023-05-29T05:30:29;14.50;99.90
4874;DHT22;2451;49.970;9.068;2023-05-29T05:32:55;14.60;99.90
4874;DHT22;2451;49.970;9.068;2023-05-29T05:35:21;14.70;99.90
4874;DHT22;2451;49.970;9.068;2023-05-29T05:37:47;14.80;99.90
4874;DHT22;2451;49.970;9.068;2023-05-29T05:40:12;14.90;99.90
4874;DHT22;2451;49.970;9.068;2023-05-29T05:42:38;15.10;99.90
4874;DHT22;2451;49.970;9.068;2023-05-29T05:45:04;15.20;99.90
4874;DHT22;2451;49.970;9.068;2023-05-29T05:47:31;15.30;99.90
4874;DHT22;2451;49.970;9.068;2023-05-29T05:49:57;15.50;99.90
4874;DHT22;2451;49.970;9.068;2023-05-29T05:52:23;15.60;99.90
4874;DHT22;2451;49.970;9.068;2023-05-29T05:54:49;15.70;99.90
4874;DHT22;2451;49.970;9.068;2023-05-29T05:57:15;15.80;99.90
4874;DHT22;2451;49.970;9.068;2023-05-29T05:59:40;15.90;99.90
4874;DHT22;2451;49.970;9.068;2023-05-29T06:02:06;16.10;99.90
4874;DHT22;2451;49.970;9.068;2023-05-29T06:04:32;16.10;99.90
4874;DHT22;2451;49.970;9.068;2023-05-29T06:06:57;16.00;99.90
4874;DHT22;2451;49.970;9.068;2023-05-29T06:09:23;16.10;99.90
4874;DHT22;2451;49.970;9.068;2023-05-29T06:11:50;16.30;99.90
4874;DHT22;2451;49.970;9.068;2023-05-29T06:14:15;16.50;99.90
4874;DHT22;2451;49.970;9.068;2023-05-29T06:16:42;16.60;99.90
4874;DHT22;2451;49.970;9.068;2023-05-29T06:19:07;16.80;99.90
4874;DHT22;2451;49.970;9.068;2023-05-29T06:21:33;16.90;99.90
4874;DHT22;2451;49.970;9.068;2023-05-29T06:23:58;17.00;99.90
4874;DHT22;2451;49.970;9.068;2023-05-29T06:26:24;17.20;99.90
4874;DHT22;2451;49.970;9.068;2023-05-29T06:28:53;17.30;99.90
4874;DHT22;2451;49.970;9.068;2023-05-29T06:31:19;17.50;99.90
4874;DHT22;2451;49.970;9.068;2023-05-29T06:33:45;17.70;99.90
4874;DHT22;2451;49.970;9.068;2023-05-29T06:36:11;17.90;99.90
4874;DHT22;2451;49.970;9.068;2023-05-29T06:38:37;18.10;99.90
4874;DHT22;2451;49.970;9.068;2023-05-29T06:41:03;18.30;99.90
4874;DHT22;2451;49.970;9.068;2023-05-29T06:43:28;18.30;99.90
4874;DHT22;2451;49.970;9.068;2023-05-29T06:45:54;18.50;99.90
4874;DHT22;2451;49.970;9.068;2023-05-29T06:48:20;18.70;99.90
4874;DHT22;2451;49.970;9.068;2023-05-29T06:50:46;18.90;99.90
4874;DHT22;2451;49.970;9.068;2023-05-29T06:53:12;19.10;99.90
4874;DHT22;2451;49.970;9.068;2023-05-29T06:55:38;19.30;99.90
4874;DHT22;2451;49.970;9.068;2023-05-29T06:58:06;19.40;99.90
4874;DHT22;2451;49.970;9.068;2023-05-29T07:00:31;19.60;99.90
4874;DHT22;2451;49.970;9.068;2023-05-29T07:02:57;19.60;99.90
4874;DHT22;2451;49.970;9.068;2023-05-29T07:05:22;19.70;99.90
4874;DHT22;2451;49.970;9.068;2023-05-29T07:07:48;19.90;99.90
4874;DHT22;2451;49.970;9.068;2023-05-29T07:10:13;20.10;99.90
4874;DHT22;2451;49.970;9.068;2023-05-29T07:12:39;20.10;99.90
4874;DHT22;2451;49.970;9.068;2023-05-29T07:15:05;20.30;99.90
4874;DHT22;2451;49.970;9.068;2023-05-29T07:17:30;20.60;99.90
4874;DHT22;2451;49.970;9.068;2023-05-29T07:19:56;20.80;99.90
4874;DHT22;2451;49.970;9.068;2023-05-29T07:22:21;20.90;99.90
4874;DHT22;2451;49.970;9.068;2023-05-29T07:24:47;21.10;99.90
4874;DHT22;2451;49.970;9.068;2023-05-29T07:27:12;21.30;99.90
4874;DHT22;2451;49.970;9.068;2023-05-29T07:29:38;21.50;99.20
4874;DHT22;2451;49.970;9.068;2023-05-29T07:32:04;21.60;99.60
4874;DHT22;2451;49.970;9.068;2023-05-29T07:34:29;21.70;99.00
4874;DHT22;2451;49.970;9.068;2023-05-29T07:37:03;21.90;98.30
4874;DHT22;2451;49.970;9.068;2023-05-29T07:39:30;21.90;98.70
4874;DHT22;2451;49.970;9.068;2023-05-29T07:41:56;22.20;98.50
4874;DHT22;2451;49.970;9.068;2023-05-29T07:44:22;22.60;97.80
4874;DHT22;2451;49.970;9.068;2023-05-29T07:46:47;22.90;97.90
4874;DHT22;2451;49.970;9.068;2023-05-29T07:49:13;22.90;96.70
4874;DHT22;2451;49.970;9.068;2023-05-29T07:51:39;23.20;97.10
4874;DHT22;2451;49.970;9.068;2023-05-29T07:54:05;23.40;96.20
4874;DHT22;2451;49.970;9.068;2023-05-29T07:56:31;23.60;95.30
4874;DHT22;2451;49.970;9.068;2023-05-29T07:58:59;23.60;95.30
4874;DHT22;2451;49.970;9.068;2023-05-29T08:01:24;23.70;95.30
4874;DHT22;2451;49.970;9.068;2023-05-29T08:03:51;23.60;94.10
4874;DHT22;2451;49.970;9.068;2023-05-29T08:06:17;23.60;94.50
4874;DHT22;2451;49.970;9.068;2023-05-29T08:08:43;23.50;93.80
4874;DHT22;2451;49.970;9.068;2023-05-29T08:11:09;23.40;94.40
4874;DHT22;2451;49.970;9.068;2023-05-29T08:13:36;23.30;94.10
4874;DHT22;2451;49.970;9.068;2023-05-29T08:16:01;23.20;94.80
4874;DHT22;2451;49.970;9.068;2023-05-29T08:18:29;23.50;95.50
4874;DHT22;2451;49.970;9.068;2023-05-29T08:20:55;23.70;94.50
4874;DHT22;2451;49.970;9.068;2023-05-29T08:23:21;24.00;94.30
4874;DHT22;2451;49.970;9.068;2023-05-29T08:25:46;24.00;93.90
4874;DHT22;2451;49.970;9.068;2023-05-29T08:28:14;24.10;92.80
4874;DHT22;2451;49.970;9.068;2023-05-29T08:30:39;24.40;94.00
4874;DHT22;2451;49.970;9.068;2023-05-29T08:33:05;24.70;95.00
4874;DHT22;2451;49.970;9.068;2023-05-29T08:35:31;25.00;94.90
4874;DHT22;2451;49.970;9.068;2023-05-29T08:37:56;25.20;93.30
4874;DHT22;2451;49.970;9.068;2023-05-29T08:40:22;25.30;92.30
4874;DHT22;2451;49.970;9.068;2023-05-29T08:42:54;25.50;91.70
4874;DHT22;2451;49.970;9.068;2023-05-29T08:45:22;25.60;92.30
4874;DHT22;2451;49.970;9.068;2023-05-29T08:47:52;25.60;92.00
4874;DHT22;2451;49.970;9.068;2023-05-29T08:50:20;25.30;90.90
4874;DHT22;2451;49.970;9.068;2023-05-29T08:52:46;25.40;90.70
4874;DHT22;2451;49.970;9.068;2023-05-29T08:55:13;25.40;90.00
4874;DHT22;2451;49.970;9.068;2023-05-29T08:57:38;25.60;89.50
4874;DHT22;2451;49.970;9.068;2023-05-29T09:00:05;25.50;86.40
4874;DHT22;2451;49.970;9.068;2023-05-29T09:02:41;25.50;85.50
4874;DHT22;2451;49.970;9.068;2023-05-29T09:05:09;25.90;90.70
4874;DHT22;2451;49.970;9.068;2023-05-29T09:07:38;26.40;89.10
4874;DHT22;2451;49.970;9.068;2023-05-29T09:10:13;26.40;84.00
4874;DHT22;2451;49.970;9.068;2023-05-29T09:12:40;26.90;74.70
4874;DHT22;2451;49.970;9.068;2023-05-29T09:15:20;27.00;65.70
4874;DHT22;2451;49.970;9.068;2023-05-29T09:17:53;27.10;61.50
4874;DHT22;2451;49.970;9.068;2023-05-29T09:20:20;27.30;57.50
4874;DHT22;2451;49.970;9.068;2023-05-29T09:22:56;27.00;54.60
4874;DHT22;2451;49.970;9.068;2023-05-29T09:25:25;26.60;52.10
4874;DHT22;2451;49.970;9.068;2023-05-29T09:27:57;26.40;51.80
4874;DHT22;2451;49.970;9.068;2023-05-29T09:30:44;26.30;51.00
4874;DHT22;2451;49.970;9.068;2023-05-29T09:33:11;26.50;51.20
4874;DHT22;2451;49.970;9.068;2023-05-29T09:38:08;27.00;51.60
4874;DHT22;2451;49.970;9.068;2023-05-29T09:40:37;27.10;50.50
4874;DHT22;2451;49.970;9.068;2023-05-29T09:43:13;27.30;50.70
4874;DHT22;2451;49.970;9.068;2023-05-29T09:45:40;27.30;50.40
4874;DHT22;2451;49.970;9.068;2023-05-29T09:48:08;27.20;50.10
4874;DHT22;2451;49.970;9.068;2023-05-29T09:50:34;27.20;48.20
4874;DHT22;2451;49.970;9.068;2023-05-29T09:53:00;27.30;48.90
4874;DHT22;2451;49.970;9.068;2023-05-29T09:55:27;27.30;48.40
4874;DHT22;2451;49.970;9.068;2023-05-29T09:57:54;27.60;47.40
4874;DHT22;2451;49.970;9.068;2023-05-29T10:00:20;27.60;46.70
4874;DHT22;2451;49.970;9.068;2023-05-29T10:02:48;27.50;47.90
4874;DHT22;2451;49.970;9.068;2023-05-29T10:05:13;27.60;46.20
4874;DHT22;2451;49.970;9.068;2023-05-29T10:07:43;27.60;46.20
4874;DHT22;2451;49.970;9.068;2023-05-29T10:10:11;27.90;47.90
4874;DHT22;2451;49.970;9.068;2023-05-29T10:12:45;27.80;45.60
4874;DHT22;2451;49.970;9.068;2023-05-29T10:15:13;27.50;45.40
4874;DHT22;2451;49.970;9.068;2023-05-29T10:17:52;27.40;45.80
4874;DHT22;2451;49.970;9.068;2023-05-29T10:20:20;27.20;45.90
4874;DHT22;2451;49.970;9.068;2023-05-29T10:22:49;27.40;46.10
4874;DHT22;2451;49.970;9.068;2023-05-29T10:25:18;27.50;46.90
4874;DHT22;2451;49.970;9.068;2023-05-29T10:27:44;27.50;45.60
4874;DHT22;2451;49.970;9.068;2023-05-29T10:30:21;27.60;45.30
4874;DHT22;2451;49.970;9.068;2023-05-29T10:33:19;27.80;47.20
4874;DHT22;2451;49.970;9.068;2023-05-29T10:38:24;28.30;45.50
4874;DHT22;2451;49.970;9.068;2023-05-29T10:40:50;28.60;46.10
4874;DHT22;2451;49.970;9.068;2023-05-29T10:43:32;28.60;43.90
4874;DHT22;2451;49.970;9.068;2023-05-29T10:45:58;28.80;44.60
4874;DHT22;2451;49.970;9.068;2023-05-29T10:50:54;29.00;43.70
4874;DHT22;2451;49.970;9.068;2023-05-29T10:53:24;28.70;43.80
4874;DHT22;2451;49.970;9.068;2023-05-29T10:55:52;28.70;45.10
4874;DHT22;2451;49.970;9.068;2023-05-29T10:58:20;28.90;45.60
4874;DHT22;2451;49.970;9.068;2023-05-29T11:00:47;29.00;44.40
4874;DHT22;2451;49.970;9.068;2023-05-29T11:03:19;29.10;44.50
4874;DHT22;2451;49.970;9.068;2023-05-29T11:08:34;29.50;44.60
4874;DHT22;2451;49.970;9.068;2023-05-29T11:11:03;29.90;44.70
4874;DHT22;2451;49.970;9.068;2023-05-29T11:13:35;30.10;44.20
4874;DHT22;2451;49.970;9.068;2023-05-29T11:16:19;30.40;46.60
4874;DHT22;2451;49.970;9.068;2023-05-29T11:18:47;30.60;47.20
4874;DHT22;2451;49.970;9.068;2023-05-29T11:24:03;30.70;47.00
4874;DHT22;2451;49.970;9.068;2023-05-29T11:26:30;30.70;47.00
4874;DHT22;2451;49.970;9.068;2023-05-29T11:29:14;30.70;45.60
4874;DHT22;2451;49.970;9.068;2023-05-29T11:31:43;30.70;46.70
4874;DHT22;2451;49.970;9.068;2023-05-29T11:34:14;30.90;45.60
4874;DHT22;2451;49.970;9.068;2023-05-29T11:36:40;31.30;46.90
4874;DHT22;2451;49.970;9.068;2023-05-29T11:39:09;31.20;45.10
4874;DHT22;2451;49.970;9.068;2023-05-29T11:41:34;31.20;45.10
4874;DHT22;2451;49.970;9.068;2023-05-29T11:44:05;31.50;44.70
4874;DHT22;2451;49.970;9.068;2023-05-29T11:46:31;31.60;45.60
4874;DHT22;2451;49.970;9.068;2023-05-29T11:48:58;31.90;44.00
4874;DHT22;2451;49.970;9.068;2023-05-29T11:51:24;31.90;44.00
4874;DHT22;2451;49.970;9.068;2023-05-29T11:53:50;31.70;44.30
4874;DHT22;2451;49.970;9.068;2023-05-29T11:56:18;31.40;43.60
4874;DHT22;2451;49.970;9.068;2023-05-29T11:58:45;31.60;45.50
4874;DHT22;2451;49.970;9.068;2023-05-29T12:01:11;31.50;44.90
4874;DHT22;2451;49.970;9.068;2023-05-29T12:03:40;31.40;45.20
4874;DHT22;2451;49.970;9.068;2023-05-29T12:06:08;31.50;43.90
4874;DHT22;2451;49.970;9.068;2023-05-29T12:08:34;31.30;42.80
4874;DHT22;2451;49.970;9.068;2023-05-29T12:10:59;31.20;43.60
4874;DHT22;2451;49.970;9.068;2023-05-29T12:13:25;30.70;43.10
4874;DHT22;2451;49.970;9.068;2023-05-29T12:15:56;30.60;43.30
4874;DHT22;2451;49.970;9.068;2023-05-29T12:18:22;30.60;44.80
4874;DHT22;2451;49.970;9.068;2023-05-29T12:20:47;30.60;44.80
4874;DHT22;2451;49.970;9.068;2023-05-29T12:23:13;30.90;47.00
4874;DHT22;2451;49.970;9.068;2023-05-29T12:25:39;31.10;46.90
4874;DHT22;2451;49.970;9.068;2023-05-29T12:28:05;31.30;44.70
4874;DHT22;2451;49.970;9.068;2023-05-29T12:30:36;31.60;44.70
4874;DHT22;2451;49.970;9.068;2023-05-29T12:33:02;31.80;44.90
4874;DHT22;2451;49.970;9.068;2023-05-29T12:35:28;31.60;44.00
4874;DHT22;2451;49.970;9.068;2023-05-29T12:37:59;31.30;43.60
4874;DHT22;2451;49.970;9.068;2023-05-29T12:40:29;31.30;43.50
4874;DHT22;2451;49.970;9.068;2023-05-29T12:43:00;31.20;43.00
4874;DHT22;2451;49.970;9.068;2023-05-29T12:45:27;31.20;43.80
4874;DHT22;2451;49.970;9.068;2023-05-29T12:47:58;31.10;44.10
4874;DHT22;2451;49.970;9.068;2023-05-29T12:50:28;31.10;43.50
4874;DHT22;2451;49.970;9.068;2023-05-29T12:53:08;31.20;43.70
4874;DHT22;2451;49.970;9.068;2023-05-29T12:55:36;31.40;44.80
4874;DHT22;2451;49.970;9.068;2023-05-29T12:58:06;31.40;43.90
4874;DHT22;2451;49.970;9.068;2023-05-29T13:00:33;31.50;44.10
4874;DHT22;2451;49.970;9.068;2023-05-29T13:02:59;31.40;43.60
4874;DHT22;2451;49.970;9.068;2023-05-29T13:05:26;31.40;43.90
4874;DHT22;2451;49.970;9.068;2023-05-29T13:07:52;31.30;43.80
4874;DHT22;2451;49.970;9.068;2023-05-29T13:10:18;31.20;46.00
4874;DHT22;2451;49.970;9.068;2023-05-29T13:12:45;31.30;44.20
4874;DHT22;2451;49.970;9.068;2023-05-29T13:15:12;31.50;44.70
4874;DHT22;2451;49.970;9.068;2023-05-29T13:17:39;31.50;44.10
4874;DHT22;2451;49.970;9.068;2023-05-29T13:20:09;31.50;44.30
4874;DHT22;2451;49.970;9.068;2023-05-29T13:22:36;31.30;43.80
4874;DHT22;2451;49.970;9.068;2023-05-29T13:25:02;31.00;43.90
4874;DHT22;2451;49.970;9.068;2023-05-29T13:27:28;31.10;44.40
4874;DHT22;2451;49.970;9.068;2023-05-29T13:29:53;31.10;44.50
4874;DHT22;2451;49.970;9.068;2023-05-29T13:32:20;31.00;45.40
4874;DHT22;2451;49.970;9.068;2023-05-29T13:34:45;31.10;45.80
4874;DHT22;2451;49.970;9.068;2023-05-29T13:37:11;31.20;45.30
4874;DHT22;2451;49.970;9.068;2023-05-29T13:39:36;31.20;45.10
4874;DHT22;2451;49.970;9.068;2023-05-29T13:42:02;31.00;45.30
4874;DHT22;2451;49.970;9.068;2023-05-29T13:44:28;30.80;43.90
4874;DHT22;2451;49.970;9.068;2023-05-29T13:46:54;30.80;44.70
4874;DHT22;2451;49.970;9.068;2023-05-29T13:49:20;30.80;45.40
4874;DHT22;2451;49.970;9.068;2023-05-29T13:51:45;30.60;45.70
4874;DHT22;2451;49.970;9.068;2023-05-29T13:54:13;30.50;46.00
4874;DHT22;2451;49.970;9.068;2023-05-29T13:56:39;30.40;45.20
4874;DHT22;2451;49.970;9.068;2023-05-29T13:59:04;30.20;45.00
4874;DHT22;2451;49.970;9.068;2023-05-29T14:01:32;29.80;44.80
4874;DHT22;2451;49.970;9.068;2023-05-29T14:03:59;29.50;47.00
4874;DHT22;2451;49.970;9.068;2023-05-29T14:06:24;29.30;46.40
4874;DHT22;2451;49.970;9.068;2023-05-29T14:08:50;29.20;46.10
4874;DHT22;2451;49.970;9.068;2023-05-29T14:11:16;29.20;46.80
4874;DHT22;2451;49.970;9.068;2023-05-29T14:13:41;29.30;46.60
4874;DHT22;2451;49.970;9.068;2023-05-29T14:16:07;29.40;46.90
4874;DHT22;2451;49.970;9.068;2023-05-29T14:18:33;29.60;46.60
4874;DHT22;2451;49.970;9.068;2023-05-29T14:20:58;29.70;46.10
4874;DHT22;2451;49.970;9.068;2023-05-29T14:23:23;29.60;45.50
4874;DHT22;2451;49.970;9.068;2023-05-29T14:25:49;29.40;45.70
4874;DHT22;2451;49.970;9.068;2023-05-29T14:28:16;29.30;45.30
4874;DHT22;2451;49.970;9.068;2023-05-29T14:30:42;29.10;44.90
4874;DHT22;2451;49.970;9.068;2023-05-29T14:33:08;29.20;46.10
4874;DHT22;2451;49.970;9.068;2023-05-29T14:35:33;29.30;45.60
4874;DHT22;2451;49.970;9.068;2023-05-29T14:37:59;29.20;45.90
4874;DHT22;2451;49.970;9.068;2023-05-29T14:40:25;29.00;44.80
4874;DHT22;2451;49.970;9.068;2023-05-29T14:42:51;28.80;45.10
4874;DHT22;2451;49.970;9.068;2023-05-29T14:45:17;28.70;45.60
4874;DHT22;2451;49.970;9.068;2023-05-29T14:47:42;28.50;44.70
4874;DHT22;2451;49.970;9.068;2023-05-29T14:50:08;28.40;45.30
4874;DHT22;2451;49.970;9.068;2023-05-29T14:52:34;28.40;46.50
4874;DHT22;2451;49.970;9.068;2023-05-29T14:55:04;28.40;46.10
4874;DHT22;2451;49.970;9.068;2023-05-29T14:57:30;28.40;46.70
4874;DHT22;2451;49.970;9.068;2023-05-29T14:59:58;28.60;47.80
4874;DHT22;2451;49.970;9.068;2023-05-29T15:02:24;28.70;46.80
4874;DHT22;2451;49.970;9.068;2023-05-29T15:04:49;28.70;47.00
4874;DHT22;2451;49.970;9.068;2023-05-29T15:07:16;28.90;46.10
4874;DHT22;2451;49.970;9.068;2023-05-29T15:09:42;28.80;44.70
4874;DHT22;2451;49.970;9.068;2023-05-29T15:12:07;28.60;44.90
4874;DHT22;2451;49.970;9.068;2023-05-29T15:14:33;28.40;45.00
4874;DHT22;2451;49.970;9.068;2023-05-29T15:16:59;28.30;45.50
4874;DHT22;2451;49.970;9.068;2023-05-29T15:19:25;28.10;45.60
4874;DHT22;2451;49.970;9.068;2023-05-29T15:21:51;28.00;46.00
4874;DHT22;2451;49.970;9.068;2023-05-29T15:24:17;27.80;45.40
4874;DHT22;2451;49.970;9.068;2023-05-29T15:26:44;27.90;46.50
4874;DHT22;2451;49.970;9.068;2023-05-29T15:29:09;27.90;47.00
4874;DHT22;2451;49.970;9.068;2023-05-29T15:31:36;27.90;47.40
4874;DHT22;2451;49.970;9.068;2023-05-29T15:34:02;27.90;47.30
4874;DHT22;2451;49.970;9.068;2023-05-29T15:36:27;27.80;47.30
4874;DHT22;2451;49.970;9.068;2023-05-29T15:38:54;27.70;47.20
4874;DHT22;2451;49.970;9.068;2023-05-29T15:41:20;27.60;47.00
4874;DHT22;2451;49.970;9.068;2023-05-29T15:43:45;27.40;47.90
4874;DHT22;2451;49.970;9.068;2023-05-29T15:46:11;27.20;48.00
4874;DHT22;2451;49.970;9.068;2023-05-29T15:48:36;27.20;48.60
4874;DHT22;2451;49.970;9.068;2023-05-29T15:51:02;27.20;48.90
4874;DHT22;2451;49.970;9.068;2023-05-29T15:53:27;27.20;48.80
4874;DHT22;2451;49.970;9.068;2023-05-29T15:55:53;27.20;49.10
4874;DHT22;2451;49.970;9.068;2023-05-29T15:58:19;27.30;48.40
4874;DHT22;2451;49.970;9.068;2023-05-29T16:00:44;27.20;48.00
4874;DHT22;2451;49.970;9.068;2023-05-29T16:03:10;27.20;47.90
4874;DHT22;2451;49.970;9.068;2023-05-29T16:05:36;27.00;48.00
4874;DHT22;2451;49.970;9.068;2023-05-29T16:08:01;26.90;48.20
4874;DHT22;2451;49.970;9.068;2023-05-29T16:10:27;26.80;48.70
4874;DHT22;2451;49.970;9.068;2023-05-29T16:12:53;26.70;48.40
4874;DHT22;2451;49.970;9.068;2023-05-29T16:15:19;26.60;50.20
4874;DHT22;2451;49.970;9.068;2023-05-29T16:17:45;26.60;50.40
4874;DHT22;2451;49.970;9.068;2023-05-29T16:20:11;26.50;49.30
4874;DHT22;2451;49.970;9.068;2023-05-29T16:22:37;26.30;49.70